sensor_id;sensor_type;location;lat;lon;timestamp;pressure;altitude;pressure_sealevel;temperature;humidity
25869;BME280;13688;53.154;18.136;2023-05-20T00:00:24;102205.94;;;10.21;89.85
25869;BME280;13688;53.154;18.136;2023-05-20T00:05:48;102206.03;;;10.19;90.26
25869;BME280;13688;53.154;18.136;2023-05-20T00:11:11;102205.25;;;10.17;90.71
25869;BME280;13688;53.154;18.136;2023-05-20T00:16:33;102205.16;;;10.19;91.17
25869;BME280;13688;53.154;18.136;2023-05-20T00:21:55;102194.41;;;10.19;91.59
25869;BME280;13688;53.154;18.136;2023-05-20T00:27:18;102192.67;;;10.18;91.89
25869;BME280;13688;53.154;18.136;2023-05-20T00:32:40;102185.39;;;10.20;92.15
25869;BME280;13688;53.154;18.136;2023-05-20T00:38:02;102183.52;;;10.22;92.30
25869;BME280;13688;53.154;18.136;2023-05-20T00:43:25;102187.21;;;10.19;92.50
25869;BME280;13688;53.154;18.136;2023-05-20T00:48:48;102183.74;;;10.17;92.78
25869;BME280;13688;53.154;18.136;2023-05-20T00:54:12;102181.23;;;10.14;92.96
25869;BME280;13688;53.154;18.136;2023-05-20T00:59:34;102179.45;;;10.13;93.19
25869;BME280;13688;53.154;18.136;2023-05-20T01:04:57;102175.99;;;10.11;93.37
25869;BME280;13688;53.154;18.136;2023-05-20T01:10:22;102177.89;;;10.09;93.48
25869;BME280;13688;53.154;18.136;2023-05-20T01:15:45;102169.84;;;10.09;93.51
25869;BME280;13688;53.154;18.136;2023-05-20T01:21:10;102167.23;;;10.08;93.57
25869;BME280;13688;53.154;18.136;2023-05-20T01:26:33;102173.56;;;10.07;93.60
25869;BME280;13688;53.154;18.136;2023-05-20T01:31:58;102171.73;;;10.07;93.59
25869;BME280;13688;53.154;18.136;2023-05-20T01:37:24;102170.88;;;10.07;93.51
25869;BME280;13688;53.154;18.136;2023-05-20T01:42:50;102178.06;;;10.06;93.44
25869;BME280;13688;53.154;18.136;2023-05-20T01:48:14;102165.58;;;10.05;93.42
25869;BME280;13688;53.154;18.136;2023-05-20T01:53:37;102171.01;;;10.03;93.38
25869;BME280;13688;53.154;18.136;2023-05-20T01:59:00;102162.17;;;10.01;93.50
25869;BME280;13688;53.154;18.136;2023-05-20T02:04:22;102158.78;;;9.98;93.62
25869;BME280;13688;53.154;18.136;2023-05-20T02:09:45;102165.98;;;9.97;93.71
25869;BME280;13688;53.154;18.136;2023-05-20T02:15:08;102159.73;;;9.97;93.72
25869;BME280;13688;53.154;18.136;2023-05-20T02:20:33;102163.46;;;9.94;93.74
25869;BME280;13688;53.154;18.136;2023-05-20T02:25:55;102160.91;;;9.91;93.70
25869;BME280;13688;53.154;18.136;2023-05-20T02:31:19;102156.49;;;9.90;93.70
25869;BME280;13688;53.154;18.136;2023-05-20T02:36:41;102165.50;;;9.89;93.73
25869;BME280;13688;53.154;18.136;2023-05-20T02:42:03;102154.75;;;9.89;93.71
25869;BME280;13688;53.154;18.136;2023-05-20T02:47:27;102148.43;;;9.90;93.72
25869;BME280;13688;53.154;18.136;2023-05-20T02:52:49;102151.98;;;9.91;93.61
25869;BME280;13688;53.154;18.136;2023-05-20T02:58:12;102157.44;;;9.89;93.40
25869;BME280;13688;53.154;18.136;2023-05-20T03:03:35;102158.48;;;9.87;93.29
25869;BME280;13688;53.154;18.136;2023-05-20T03:08:57;102151.28;;;9.87;93.29
25869;BME280;13688;53.154;18.136;2023-05-20T03:14:20;102152.23;;;9.86;93.15
25869;BME280;13688;53.154;18.136;2023-05-20T03:19:42;102163.94;;;9.85;93.07
25869;BME280;13688;53.154;18.136;2023-05-20T03:25:05;102155.87;;;9.85;92.92
25869;BME280;13688;53.154;18.136;2023-05-20T03:30:27;102169.23;;;9.87;92.74
25869;BME280;13688;53.154;18.136;2023-05-20T03:35:50;102164.80;;;9.86;92.45
25869;BME280;13688;53.154;18.136;2023-05-20T03:41:12;102167.41;;;9.87;92.12
25869;BME280;13688;53.154;18.136;2023-05-20T03:46:35;102183.36;;;9.90;91.80
25869;BME280;13688;53.154;18.136;2023-05-20T03:51:57;102173.30;;;9.94;91.28
25869;BME280;13688;53.154;18.136;2023-05-20T03:57:19;102183.14;;;9.95;90.93
25869;BME280;13688;53.154;18.136;2023-05-20T04:02:42;102177.59;;;9.98;90.58
25869;BME280;13688;53.154;18.136;2023-05-20T04:08:05;102181.70;;;10.05;90.07
25869;BME280;13688;53.154;18.136;2023-05-20T04:13:29;102185.95;;;10.09;89.51
25869;BME280;13688;53.154;18.136;2023-05-20T04:18:52;102176.77;;;10.13;89.06
25869;BME280;13688;53.154;18.136;2023-05-20T04:24:14;102175.59;;;10.19;88.63
25869;BME280;13688;53.154;18.136;2023-05-20T04:29:36;102179.06;;;10.21;88.06
25869;BME280;13688;53.154;18.136;2023-05-20T04:34:59;102186.26;;;10.20;87.63
25869;BME280;13688;53.154;18.136;2023-05-20T04:40:22;102180.88;;;10.20;87.37
25869;BME280;13688;53.154;18.136;2023-05-20T04:45:45;102174.73;;;10.18;87.25
25869;BME280;13688;53.154;18.136;2023-05-20T04:51:09;102180.19;;;10.17;87.41
25869;BME280;13688;53.154;18.136;2023-05-20T04:56:31;102183.47;;;10.23;87.20
25869;BME280;13688;53.154;18.136;2023-05-20T05:01:55;102184.71;;;10.34;86.83
25869;BME280;13688;53.154;18.136;2023-05-20T05:07:17;102182.31;;;10.45;86.27
25869;BME280;13688;53.154;18.136;2023-05-20T05:12:39;102176.08;;;10.60;85.50
25869;BME280;13688;53.154;18.136;2023-05-20T05:18:02;102179.85;;;10.73;84.53
25869;BME280;13688;53.154;18.136;2023-05-20T05:23:26;102182.04;;;10.82;83.75
25869;BME280;13688;53.154;18.136;2023-05-20T05:28:48;102177.52;;;10.99;83.23
25869;BME280;13688;53.154;18.136;2023-05-20T05:34:10;102178.67;;;11.10;82.68
25869;BME280;13688;53.154;18.136;2023-05-20T05:39:33;102184.22;;;11.23;81.95
25869;BME280;13688;53.154;18.136;2023-05-20T05:44:55;102172.82;;;11.34;81.14
25869;BME280;13688;53.154;18.136;2023-05-20T05:50:18;102174.02;;;11.44;80.72
25869;BME280;13688;53.154;18.136;2023-05-20T05:55:41;102174.88;;;11.60;80.00
25869;BME280;13688;53.154;18.136;2023-05-20T06:01:03;102177.98;;;11.68;79.14
25869;BME280;13688;53.154;18.136;2023-05-20T06:06:26;102179.43;;;11.74;78.72
25869;BME280;13688;53.154;18.136;2023-05-20T06:11:49;102183.70;;;11.78;78.60
25869;BME280;13688;53.154;18.136;2023-05-20T06:17:11;102190.69;;;11.96;78.52
25869;BME280;13688;53.154;18.136;2023-05-20T06:22:34;102190.52;;;11.99;77.89
25869;BME280;13688;53.154;18.136;2023-05-20T06:27:57;102190.73;;;12.11;77.40
25869;BME280;13688;53.154;18.136;2023-05-20T06:33:25;102195.21;;;12.26;76.95
25869;BME280;13688;53.154;18.136;2023-05-20T06:38:45;102187.69;;;12.31;76.63
25869;BME280;13688;53.154;18.136;2023-05-20T06:44:08;102176.13;;;12.43;76.19
25869;BME280;13688;53.154;18.136;2023-05-20T06:49:31;102186.47;;;12.65;75.54
25869;BME280;13688;53.154;18.136;2023-05-20T06:54:55;102186.92;;;12.72;74.85
25869;BME280;13688;53.154;18.136;2023-05-20T07:00:18;102179.97;;;12.82;74.45
25869;BME280;13688;53.154;18.136;2023-05-20T07:05:41;102183.26;;;12.87;73.84
25869;BME280;13688;53.154;18.136;2023-05-20T07:11:03;102180.83;;;12.97;73.60
25869;BME280;13688;53.154;18.136;2023-05-20T07:16:26;102176.47;;;13.08;72.90
25869;BME280;13688;53.154;18.136;2023-05-20T07:21:49;102171.08;;;13.23;72.49
25869;BME280;13688;53.154;18.136;2023-05-20T07:27:11;102173.57;;;13.53;72.06
25869;BME280;13688;53.154;18.136;2023-05-20T07:32:34;102169.77;;;13.82;70.80
25869;BME280;13688;53.154;18.136;2023-05-20T07:37:56;102163.62;;;14.18;70.27
25869;BME280;13688;53.154;18.136;2023-05-20T07:43:19;102160.72;;;14.21;68.93
25869;BME280;13688;53.154;18.136;2023-05-20T07:48:42;102156.61;;;14.41;68.51
25869;BME280;13688;53.154;18.136;2023-05-20T07:54:04;102156.73;;;14.52;67.78
25869;BME280;13688;53.154;18.136;2023-05-20T07:59:27;102156.48;;;14.81;68.01
25869;BME280;13688;53.154;18.136;2023-05-20T08:04:49;102149.67;;;15.12;67.30
25869;BME280;13688;53.154;18.136;2023-05-20T08:10:14;102144.27;;;15.36;66.69
25869;BME280;13688;53.154;18.136;2023-05-20T08:15:36;102149.22;;;15.42;65.03
25869;BME280;13688;53.154;18.136;2023-05-20T08:20:59;102147.00;;;15.95;64.77
25869;BME280;13688;53.154;18.136;2023-05-20T08:26:23;102130.28;;;16.35;62.80
25869;BME280;13688;53.154;18.136;2023-05-20T08:31:45;102128.45;;;16.69;61.84
25869;BME280;13688;53.154;18.136;2023-05-20T08:37:08;102130.53;;;16.87;61.12
25869;BME280;13688;53.154;18.136;2023-05-20T08:42:31;102141.15;;;17.02;59.88
25869;BME280;13688;53.154;18.136;2023-05-20T08:47:55;102131.20;;;17.23;59.64
25869;BME280;13688;53.154;18.136;2023-05-20T08:53:21;102124.41;;;17.29;59.42
25869;BME280;13688;53.154;18.136;2023-05-20T08:58:44;102120.10;;;17.15;59.05
25869;BME280;13688;53.154;18.136;2023-05-20T09:04:07;102105.19;;;17.41;58.91
25869;BME280;13688;53.154;18.136;2023-05-20T09:09:32;102105.84;;;17.34;58.21
25869;BME280;13688;53.154;18.136;2023-05-20T09:14:55;102101.61;;;17.41;58.42
25869;BME280;13688;53.154;18.136;2023-05-20T09:20:20;102102.84;;;17.37;58.02
25869;BME280;13688;53.154;18.136;2023-05-20T09:25:43;102099.75;;;17.41;58.35
25869;BME280;13688;53.154;18.136;2023-05-20T09:31:08;102089.47;;;17.45;57.25
25869;BME280;13688;53.154;18.136;2023-05-20T09:36:33;102095.49;;;18.01;56.54
25869;BME280;13688;53.154;18.136;2023-05-20T09:42:04;102077.30;;;17.60;56.87
25869;BME280;13688;53.154;18.136;2023-05-20T09:47:30;102075.55;;;18.22;55.46
25869;BME280;13688;53.154;18.136;2023-05-20T09:52:55;102068.78;;;18.87;53.24
25869;BME280;13688;53.154;18.136;2023-05-20T09:58:19;102076.89;;;19.56;52.08
25869;BME280;13688;53.154;18.136;2023-05-20T10:03:46;102067.84;;;19.56;50.03
25869;BME280;13688;53.154;18.136;2023-05-20T10:20:49;102081.03;;;21.54;47.42
25869;BME280;13688;53.154;18.136;2023-05-20T10:26:12;102057.08;;;21.21;45.66
25869;BME280;13688;53.154;18.136;2023-05-20T10:31:42;102050.04;;;21.00;47.89
25869;BME280;13688;53.154;18.136;2023-05-20T10:37:03;102043.86;;;21.95;45.74
25869;BME280;13688;53.154;18.136;2023-05-20T10:42:35;102049.91;;;21.55;45.41
25869;BME280;13688;53.154;18.136;2023-05-20T10:48:00;102036.44;;;22.40;46.20
25869;BME280;13688;53.154;18.136;2023-05-20T10:53:25;102037.94;;;21.56;46.43
25869;BME280;13688;53.154;18.136;2023-05-20T10:58:56;102039.55;;;21.67;47.25
25869;BME280;13688;53.154;18.136;2023-05-20T11:04:21;102032.43;;;21.74;46.25
25869;BME280;13688;53.154;18.136;2023-05-20T11:09:49;102035.75;;;21.86;47.42
25869;BME280;13688;53.154;18.136;2023-05-20T11:15:14;102021.62;;;22.24;45.97
25869;BME280;13688;53.154;18.136;2023-05-20T11:20:37;102016.95;;;23.09;43.89
25869;BME280;13688;53.154;18.136;2023-05-20T11:26:03;102010.02;;;22.31;45.49
25869;BME280;13688;53.154;18.136;2023-05-20T11:31:26;102018.69;;;21.92;47.86
25869;BME280;13688;53.154;18.136;2023-05-20T11:36:55;102016.96;;;22.17;45.49
25869;BME280;13688;53.154;18.136;2023-05-20T11:42:20;102016.83;;;21.13;47.68
25869;BME280;13688;53.154;18.136;2023-05-20T11:47:43;102014.92;;;20.60;49.62
25869;BME280;13688;53.154;18.136;2023-05-20T11:53:24;102011.23;;;20.51;51.16
25869;BME280;13688;53.154;18.136;2023-05-20T11:58:49;102008.88;;;23.00;46.51
25869;BME280;13688;53.154;18.136;2023-05-20T12:04:15;102000.50;;;23.18;45.16
25869;BME280;13688;53.154;18.136;2023-05-20T12:09:37;102000.48;;;23.09;44.98
25869;BME280;13688;53.154;18.136;2023-05-20T12:15:00;101997.84;;;22.83;45.63
25869;BME280;13688;53.154;18.136;2023-05-20T12:20:24;101990.17;;;23.85;44.57
25869;BME280;13688;53.154;18.136;2023-05-20T12:25:47;101981.61;;;23.55;42.97
25869;BME280;13688;53.154;18.136;2023-05-20T12:31:09;101988.91;;;22.73;45.01
25869;BME280;13688;53.154;18.136;2023-05-20T12:36:32;101983.78;;;22.20;47.12
25869;BME280;13688;53.154;18.136;2023-05-20T12:41:55;101976.34;;;22.54;47.08
25869;BME280;13688;53.154;18.136;2023-05-20T12:47:19;101973.05;;;23.66;44.01
25869;BME280;13688;53.154;18.136;2023-05-20T12:52:41;101966.63;;;24.38;43.21
25869;BME280;13688;53.154;18.136;2023-05-20T12:58:04;101958.92;;;23.86;42.28
25869;BME280;13688;53.154;18.136;2023-05-20T13:03:26;101958.19;;;23.92;43.17
25869;BME280;13688;53.154;18.136;2023-05-20T13:08:49;101946.56;;;22.60;45.12
25869;BME280;13688;53.154;18.136;2023-05-20T13:14:12;101942.98;;;22.83;46.06
25869;BME280;13688;53.154;18.136;2023-05-20T13:19:34;101934.46;;;23.11;46.17
25869;BME280;13688;53.154;18.136;2023-05-20T13:24:57;101925.34;;;23.59;43.96
25869;BME280;13688;53.154;18.136;2023-05-20T13:30:20;101923.77;;;24.12;43.12
25869;BME280;13688;53.154;18.136;2023-05-20T13:35:43;101916.41;;;24.13;43.01
25869;BME280;13688;53.154;18.136;2023-05-20T13:41:06;101915.69;;;23.72;44.69
25869;BME280;13688;53.154;18.136;2023-05-20T13:46:28;101913.80;;;23.72;44.27
25869;BME280;13688;53.154;18.136;2023-05-20T13:51:51;101913.65;;;23.57;44.40
25869;BME280;13688;53.154;18.136;2023-05-20T13:57:14;101900.67;;;23.27;46.13
25869;BME280;13688;53.154;18.136;2023-05-20T14:02:36;101899.77;;;23.59;45.85
25869;BME280;13688;53.154;18.136;2023-05-20T14:07:59;101894.87;;;22.97;45.46
25869;BME280;13688;53.154;18.136;2023-05-20T14:13:22;101881.61;;;22.52;47.20
25869;BME280;13688;53.154;18.136;2023-05-20T14:18:45;101882.66;;;22.83;47.03
25869;BME280;13688;53.154;18.136;2023-05-20T14:24:07;101866.16;;;23.40;46.26
25869;BME280;13688;53.154;18.136;2023-05-20T14:29:32;101860.06;;;23.78;45.15
25869;BME280;13688;53.154;18.136;2023-05-20T14:34:54;101871.92;;;24.09;44.54
25869;BME280;13688;53.154;18.136;2023-05-20T14:40:17;101861.03;;;24.24;44.63
25869;BME280;13688;53.154;18.136;2023-05-20T14:45:39;101869.80;;;24.19;43.97
25869;BME280;13688;53.154;18.136;2023-05-20T14:51:02;101856.02;;;25.63;42.67
25869;BME280;13688;53.154;18.136;2023-05-20T14:56:24;101858.16;;;25.09;42.28
25869;BME280;13688;53.154;18.136;2023-05-20T15:01:47;101855.04;;;24.51;43.22
25869;BME280;13688;53.154;18.136;2023-05-20T15:07:10;101846.33;;;25.23;42.02
25869;BME280;13688;53.154;18.136;2023-05-20T15:12:33;101857.60;;;24.53;43.43
25869;BME280;13688;53.154;18.136;2023-05-20T15:17:55;101854.62;;;24.01;44.76
25869;BME280;13688;53.154;18.136;2023-05-20T15:23:18;101851.30;;;24.44;44.15
25869;BME280;13688;53.154;18.136;2023-05-20T15:28:40;101826.56;;;25.05;42.53
25869;BME280;13688;53.154;18.136;2023-05-20T15:34:03;101827.63;;;25.33;43.47
25869;BME280;13688;53.154;18.136;2023-05-20T15:39:25;101817.09;;;25.52;41.99
25869;BME280;13688;53.154;18.136;2023-05-20T15:44:48;101803.42;;;25.14;43.27
25869;BME280;13688;53.154;18.136;2023-05-20T15:50:10;101812.64;;;25.21;42.55
25869;BME280;13688;53.154;18.136;2023-05-20T15:55:33;101806.07;;;25.81;42.01
25869;BME280;13688;53.154;18.136;2023-05-20T16:00:57;101804.32;;;26.74;39.74
25869;BME280;13688;53.154;18.136;2023-05-20T16:06:19;101795.59;;;27.26;39.12
25869;BME280;13688;53.154;18.136;2023-05-20T16:11:42;101780.73;;;26.07;40.78
25869;BME280;13688;53.154;18.136;2023-05-20T16:17:05;101788.77;;;25.87;41.59
25869;BME280;13688;53.154;18.136;2023-05-20T16:22:29;101776.14;;;25.63;42.14
25869;BME280;13688;53.154;18.136;2023-05-20T16:27:51;101770.96;;;26.26;41.02
25869;BME280;13688;53.154;18.136;2023-05-20T16:33:13;101767.30;;;26.40;40.74
25869;BME280;13688;53.154;18.136;2023-05-20T16:38:36;101777.92;;;25.86;42.15
25869;BME280;13688;53.154;18.136;2023-05-20T16:43:58;101769.09;;;25.90;42.14
25869;BME280;13688;53.154;18.136;2023-05-20T16:49:20;101775.25;;;25.92;42.28
25869;BME280;13688;53.154;18.136;2023-05-20T16:54:43;101775.84;;;25.88;42.27
25869;BME280;13688;53.154;18.136;2023-05-20T17:00:08;101776.10;;;25.93;42.86
25869;BME280;13688;53.154;18.136;2023-05-20T17:05:31;101778.25;;;25.47;42.84
25869;BME280;13688;53.154;18.136;2023-05-20T17:10:53;101772.16;;;24.92;43.61
25869;BME280;13688;53.154;18.136;2023-05-20T17:16:15;101770.34;;;24.84;44.61
25869;BME280;13688;53.154;18.136;2023-05-20T17:21:38;101779.37;;;23.79;46.58
25869;BME280;13688;53.154;18.136;2023-05-20T17:27:01;101774.70;;;23.87;47.47
25869;BME280;13688;53.154;18.136;2023-05-20T17:32:24;101777.44;;;23.87;47.35
25869;BME280;13688;53.154;18.136;2023-05-20T17:37:47;101776.37;;;23.65;48.08
25869;BME280;13688;53.154;18.136;2023-05-20T17:43:09;101776.61;;;23.39;48.42
25869;BME280;13688;53.154;18.136;2023-05-20T17:48:34;101769.70;;;22.96;49.88
25869;BME280;13688;53.154;18.136;2023-05-20T17:53:56;101770.59;;;22.56;50.65
25869;BME280;13688;53.154;18.136;2023-05-20T17:59:18;101766.81;;;22.16;52.22
25869;BME280;13688;53.154;18.136;2023-05-20T18:04:42;101764.14;;;21.74;53.41
25869;BME280;13688;53.154;18.136;2023-05-20T18:10:05;101755.58;;;21.27;54.58
25869;BME280;13688;53.154;18.136;2023-05-20T18:15:27;101759.48;;;20.72;56.06
25869;BME280;13688;53.154;18.136;2023-05-20T18:20:50;101763.75;;;20.13;58.04
25869;BME280;13688;53.154;18.136;2023-05-20T18:26:14;101763.18;;;19.74;59.68
25869;BME280;13688;53.154;18.136;2023-05-20T18:31:37;101754.92;;;19.29;61.51
25869;BME280;13688;53.154;18.136;2023-05-20T18:37:00;101752.92;;;18.94;63.09
25869;BME280;13688;53.154;18.136;2023-05-20T18:42:23;101749.66;;;18.61;64.71
25869;BME280;13688;53.154;18.136;2023-05-20T18:47:46;101745.86;;;18.35;66.16
25869;BME280;13688;53.154;18.136;2023-05-20T18:53:09;101740.83;;;18.11;67.27
25869;BME280;13688;53.154;18.136;2023-05-20T18:58:32;101749.28;;;17.88;68.09
25869;BME280;13688;53.154;18.136;2023-05-20T19:03:54;101757.53;;;17.67;68.95
25869;BME280;13688;53.154;18.136;2023-05-20T19:09:18;101753.16;;;17.45;69.89
25869;BME280;13688;53.154;18.136;2023-05-20T19:14:42;101750.98;;;17.30;70.61
25869;BME280;13688;53.154;18.136;2023-05-20T19:20:05;101749.09;;;17.21;71.16
25869;BME280;13688;53.154;18.136;2023-05-20T19:25:28;101755.30;;;17.02;71.69
25869;BME280;13688;53.154;18.136;2023-05-20T19:30:51;101746.63;;;16.87;72.57
25869;BME280;13688;53.154;18.136;2023-05-20T19:36:15;101748.43;;;16.77;73.27
25869;BME280;13688;53.154;18.136;2023-05-20T19:41:38;101740.09;;;16.69;73.64
25869;BME280;13688;53.154;18.136;2023-05-20T19:47:02;101739.41;;;16.55;73.98
25869;BME280;13688;53.154;18.136;2023-05-20T19:52:24;101741.72;;;16.39;74.72
25869;BME280;13688;53.154;18.136;2023-05-20T19:57:47;101743.06;;;16.24;75.54
25869;BME280;13688;53.154;18.136;2023-05-20T20:03:11;101744.97;;;16.12;76.39
25869;BME280;13688;53.154;18.136;2023-05-20T20:08:33;101746.39;;;15.95;77.18
25869;BME280;13688;53.154;18.136;2023-05-20T20:13:56;101751.45;;;15.89;77.68
25869;BME280;13688;53.154;18.136;2023-05-20T20:19:18;101753.34;;;15.77;78.01
25869;BME280;13688;53.154;18.136;2023-05-20T20:24:41;101759.93;;;15.63;78.49
25869;BME280;13688;53.154;18.136;2023-05-20T20:30:03;101759.89;;;15.52;78.93
25869;BME280;13688;53.154;18.136;2023-05-20T20:35:27;101756.08;;;15.43;79.36
25869;BME280;13688;53.154;18.136;2023-05-20T20:40:49;101752.40;;;15.33;79.83
25869;BME280;13688;53.154;18.136;2023-05-20T20:46:22;101750.69;;;15.21;80.31
25869;BME280;13688;53.154;18.136;2023-05-20T20:51:47;101746.41;;;15.07;80.67
25869;BME280;13688;53.154;18.136;2023-05-20T20:57:10;101750.93;;;14.96;81.29
25869;BME280;13688;53.154;18.136;2023-05-20T21:02:34;101757.46;;;14.93;81.41
25869;BME280;13688;53.154;18.136;2023-05-20T21:07:57;101753.41;;;14.87;81.56
25869;BME280;13688;53.154;18.136;2023-05-20T21:13:21;101743.45;;;14.88;81.51
25869;BME280;13688;53.154;18.136;2023-05-20T21:18:46;101752.04;;;14.82;81.50
25869;BME280;13688;53.154;18.136;2023-05-20T21:24:09;101748.34;;;14.72;81.83
25869;BME280;13688;53.154;18.136;2023-05-20T21:29:32;101757.70;;;14.68;82.32
25869;BME280;13688;53.154;18.136;2023-05-20T21:34:54;101747.59;;;14.58;82.61
25869;BME280;13688;53.154;18.136;2023-05-20T21:40:17;101746.59;;;14.48;83.07
25869;BME280;13688;53.154;18.136;2023-05-20T21:45:40;101744.77;;;14.36;83.59
25869;BME280;13688;53.154;18.136;2023-05-20T21:51:02;101740.20;;;14.25;84.23
25869;BME280;13688;53.154;18.136;2023-05-20T21:56:24;101741.77;;;14.17;84.71
25869;BME280;13688;53.154;18.136;2023-05-20T22:01:47;101736.84;;;14.11;85.25
25869;BME280;13688;53.154;18.136;2023-05-20T22:07:11;101741.11;;;14.02;85.64
25869;BME280;13688;53.154;18.136;2023-05-20T22:12:33;101743.08;;;14.00;86.15
25869;BME280;13688;53.154;18.136;2023-05-20T22:17:59;101739.14;;;14.04;86.28
25869;BME280;13688;53.154;18.136;2023-05-20T22:23:24;101740.00;;;14.04;86.11
25869;BME280;13688;53.154;18.136;2023-05-20T22:28:46;101743.45;;;14.07;85.98
25869;BME280;13688;53.154;18.136;2023-05-20T22:34:09;101742.47;;;14.08;85.91
25869;BME280;13688;53.154;18.136;2023-05-20T22:39:31;101738.04;;;14.07;85.87
25869;BME280;13688;53.154;18.136;2023-05-20T22:44:54;101742.95;;;14.01;85.87
25869;BME280;13688;53.154;18.136;2023-05-20T22:50:17;101742.30;;;13.98;85.94
25869;BME280;13688;53.154;18.136;2023-05-20T22:55:41;101737.75;;;13.98;86.25
25869;BME280;13688;53.154;18.136;2023-05-20T23:01:04;101738.69;;;14.10;85.95
25869;BME280;13688;53.154;18.136;2023-05-20T23:06:27;101735.13;;;14.10;85.32
25869;BME280;13688;53.154;18.136;2023-05-20T23:11:50;101738.90;;;14.07;85.00
25869;BME280;13688;53.154;18.136;2023-05-20T23:17:13;101733.61;;;14.06;84.83
25869;BME280;13688;53.154;18.136;2023-05-20T23:22:39;101733.00;;;14.02;84.78
25869;BME280;13688;53.154;18.136;2023-05-20T23:28:00;101736.89;;;13.98;84.88
25869;BME280;13688;53.154;18.136;2023-05-20T23:33:22;101742.78;;;13.92;85.03
25869;BME280;13688;53.154;18.136;2023-05-20T23:38:44;101743.86;;;13.89;85.36
25869;BME280;13688;53.154;18.136;2023-05-20T23:44:07;101740.03;;;13.81;85.47
25869;BME280;13688;53.154;18.136;2023-05-20T23:49:29;101747.37;;;13.79;85.68
25869;BME280;13688;53.154;18.136;2023-05-20T23:54:56;101744.91;;;13.75;85.81
